This is the latest recevied weather packets stored in our database for station/object K7RAP. If no packets are shown the sender has not sent any weather packets the latest 10 day(s).
| Time | Temp. | Humidity | Pressure | Rain* | Wind** | Luminosity | Snow |
|---|---|---|---|---|---|---|---|
| 1777775404 | 22.22° C | 64% | 1009.8 hPa | - | - | - | - |
| 1777774804 | 22.22° C | 64% | 1009.8 hPa | - | - | - | - |
| 1777774205 | 22.78° C | 63% | 1009.8 hPa | - | - | - | - |
| 1777773605 | 23.89° C | 58% | 1009.8 hPa | - | - | - | - |
| 1777773003 | 23.89° C | 58% | 1009.8 hPa | - | - | - | - |
| 1777772404 | 23.89° C | 60% | 1009.8 hPa | - | - | - | - |
| 1777771804 | 24.44° C | 57% | 1009.8 hPa | - | - | - | - |
| 1777771203 | 24.44° C | 57% | 1009.8 hPa | - | - | - | - |
| 1777770604 | 25° C | 55% | 1009.8 hPa | - | - | - | - |
| 1777770004 | 26.11° C | 51% | 1009.8 hPa | - | - | - | - |
| 1777769403 | 26.11° C | 51% | 1009.8 hPa | - | - | - | - |
| 1777768804 | 26.11° C | 52% | 1009.8 hPa | - | - | - | - |
| 1777768204 | 25.56° C | 58% | 1009.8 hPa | - | - | - | - |
| 1777767603 | 25.56° C | 58% | 1009.8 hPa | - | - | - | - |
| 1777767004 | 24.44° C | 59% | 1009.8 hPa | - | - | - | - |
| 1777766404 | 24.44° C | 59% | 1010.2 hPa | - | - | - | - |
| 1777765803 | 24.44° C | 59% | 1010.2 hPa | - | - | - | - |
| 1777765204 | 23.89° C | 61% | 1010.2 hPa | - | - | - | - |
| 1777764604 | 23.89° C | 62% | 1010.5 hPa | - | - | - | - |
| 1777764004 | 23.89° C | 62% | 1010.5 hPa | - | - | - | - |
| 1777763404 | 23.89° C | 62% | 1010.8 hPa | - | - | - | - |
| 1777762804 | 23.89° C | 60% | 1011.2 hPa | - | - | - | - |
| 1777762203 | 23.89° C | 60% | 1011.2 hPa | - | - | - | - |
| 1777761603 | 22.22° C | 65% | 1011.2 hPa | - | - | - | - |
| 1777761004 | 21.11° C | 67% | 1011.5 hPa | - | - | - | - |
* Rain since midnight (hover to see other rain measurements)
** Current wind speed in m/s (hover to see current wind gust speed)